Delmar, Maryland
Current Conditions -  °F | °C
As of 12:54 AM on Wednesday 26 Nov 2014 (Local Time) from KSBY Reporting Station
Light Rain Light Rain  
Wind Chill: 50°   Ceiling: 9500
Heat Index: 50°   Visibility: 10mi
Dew Point: 41°   Wind: 5mph
Humidity: 71%   Direction: 50°NE
Pressure: 30.13"   Gusts: NA
Location:  38.46°N, 75.58°W
Report Text: KSBY 260554Z AUTO 05004KT 10SM -RA OVC095 10/05 A3013 RMK AO2 RAB00 SLP204 P0000 60000 T01000050 10111 20094 58013
Loading
Personal Weather Stations






























Interactive Weather Map New forecast layout! Learn more

10-Day Weather Forecast

Advertisements
Track Severe Weather on mobile